sensor_id;sensor_type;location;lat;lon;timestamp;temperature;humidity
3051;DHT22;1535;51.098;6.414;2024-01-06T00:00:00;7.00;99.90
3051;DHT22;1535;51.098;6.414;2024-01-06T00:02:28;7.00;99.90
3051;DHT22;1535;51.098;6.414;2024-01-06T00:04:55;7.00;99.90
3051;DHT22;1535;51.098;6.414;2024-01-06T00:07:21;7.00;99.90
3051;DHT22;1535;51.098;6.414;2024-01-06T00:09:48;7.00;99.90
3051;DHT22;1535;51.098;6.414;2024-01-06T00:12:15;7.10;99.90
3051;DHT22;1535;51.098;6.414;2024-01-06T00:14:44;7.10;99.90
3051;DHT22;1535;51.098;6.414;2024-01-06T00:17:11;7.10;99.90
3051;DHT22;1535;51.098;6.414;2024-01-06T00:19:39;7.10;99.90
3051;DHT22;1535;51.098;6.414;2024-01-06T00:22:07;7.10;99.90
3051;DHT22;1535;51.098;6.414;2024-01-06T00:24:34;7.20;99.90
3051;DHT22;1535;51.098;6.414;2024-01-06T00:27:01;7.20;99.90
3051;DHT22;1535;51.098;6.414;2024-01-06T00:29:28;7.10;99.90
3051;DHT22;1535;51.098;6.414;2024-01-06T00:31:55;7.10;99.90
3051;DHT22;1535;51.098;6.414;2024-01-06T00:34:22;7.10;99.90
3051;DHT22;1535;51.098;6.414;2024-01-06T00:36:50;7.20;99.90
3051;DHT22;1535;51.098;6.414;2024-01-06T00:39:16;7.10;99.90
3051;DHT22;1535;51.098;6.414;2024-01-06T00:41:44;7.10;99.90
3051;DHT22;1535;51.098;6.414;2024-01-06T00:44:11;7.10;99.90
3051;DHT22;1535;51.098;6.414;2024-01-06T00:46:39;7.10;99.90
3051;DHT22;1535;51.098;6.414;2024-01-06T00:49:06;7.10;99.90
3051;DHT22;1535;51.098;6.414;2024-01-06T00:51:33;7.10;99.90
3051;DHT22;1535;51.098;6.414;2024-01-06T00:54:01;7.20;99.90
3051;DHT22;1535;51.098;6.414;2024-01-06T00:56:28;7.20;99.90
3051;DHT22;1535;51.098;6.414;2024-01-06T00:58:55;7.20;99.90
3051;DHT22;1535;51.098;6.414;2024-01-06T01:01:22;7.20;99.90
3051;DHT22;1535;51.098;6.414;2024-01-06T01:03:49;7.20;99.90
3051;DHT22;1535;51.098;6.414;2024-01-06T01:06:16;7.30;99.90
3051;DHT22;1535;51.098;6.414;2024-01-06T01:08:42;7.20;99.90
3051;DHT22;1535;51.098;6.414;2024-01-06T01:11:11;7.30;99.90
3051;DHT22;1535;51.098;6.414;2024-01-06T01:13:38;7.30;99.90
3051;DHT22;1535;51.098;6.414;2024-01-06T01:16:05;7.30;99.90
3051;DHT22;1535;51.098;6.414;2024-01-06T01:18:32;7.30;99.90
3051;DHT22;1535;51.098;6.414;2024-01-06T01:20:58;7.30;99.90
3051;DHT22;1535;51.098;6.414;2024-01-06T01:23:25;7.30;99.90
3051;DHT22;1535;51.098;6.414;2024-01-06T01:25:53;7.30;99.90
3051;DHT22;1535;51.098;6.414;2024-01-06T01:28:24;7.40;99.90
3051;DHT22;1535;51.098;6.414;2024-01-06T01:30:51;7.40;99.90
3051;DHT22;1535;51.098;6.414;2024-01-06T01:33:18;7.40;99.90
3051;DHT22;1535;51.098;6.414;2024-01-06T01:35:45;7.40;99.90
3051;DHT22;1535;51.098;6.414;2024-01-06T01:38:11;7.40;99.90
3051;DHT22;1535;51.098;6.414;2024-01-06T01:40:38;7.30;99.90
3051;DHT22;1535;51.098;6.414;2024-01-06T01:43:05;7.40;99.90
3051;DHT22;1535;51.098;6.414;2024-01-06T01:45:34;7.40;99.90
3051;DHT22;1535;51.098;6.414;2024-01-06T01:48:00;7.30;99.90
3051;DHT22;1535;51.098;6.414;2024-01-06T01:50:27;7.30;99.90
3051;DHT22;1535;51.098;6.414;2024-01-06T01:52:56;7.30;99.90
3051;DHT22;1535;51.098;6.414;2024-01-06T01:55:24;7.20;99.90
3051;DHT22;1535;51.098;6.414;2024-01-06T01:57:52;7.30;99.90
3051;DHT22;1535;51.098;6.414;2024-01-06T02:00:19;7.30;99.90
3051;DHT22;1535;51.098;6.414;2024-01-06T02:02:48;7.30;99.90
3051;DHT22;1535;51.098;6.414;2024-01-06T02:05:16;7.30;99.90
3051;DHT22;1535;51.098;6.414;2024-01-06T02:07:42;7.30;99.90
3051;DHT22;1535;51.098;6.414;2024-01-06T02:10:10;7.30;99.90
3051;DHT22;1535;51.098;6.414;2024-01-06T02:12:37;7.30;99.90
3051;DHT22;1535;51.098;6.414;2024-01-06T02:15:05;7.30;99.90
3051;DHT22;1535;51.098;6.414;2024-01-06T02:17:32;7.30;99.90
3051;DHT22;1535;51.098;6.414;2024-01-06T02:20:01;7.30;99.90
3051;DHT22;1535;51.098;6.414;2024-01-06T02:22:29;7.30;99.90
3051;DHT22;1535;51.098;6.414;2024-01-06T02:24:56;7.20;99.90
3051;DHT22;1535;51.098;6.414;2024-01-06T02:27:24;7.30;99.90
3051;DHT22;1535;51.098;6.414;2024-01-06T02:29:52;7.30;99.90
3051;DHT22;1535;51.098;6.414;2024-01-06T02:32:20;7.30;99.90
3051;DHT22;1535;51.098;6.414;2024-01-06T02:34:48;7.30;99.90
3051;DHT22;1535;51.098;6.414;2024-01-06T02:37:18;7.30;99.90
3051;DHT22;1535;51.098;6.414;2024-01-06T02:39:46;7.20;99.90
3051;DHT22;1535;51.098;6.414;2024-01-06T02:42:13;7.20;99.90
3051;DHT22;1535;51.098;6.414;2024-01-06T02:44:40;7.30;99.90
3051;DHT22;1535;51.098;6.414;2024-01-06T02:47:06;7.20;99.90
3051;DHT22;1535;51.098;6.414;2024-01-06T02:49:33;7.30;99.90
3051;DHT22;1535;51.098;6.414;2024-01-06T02:52:00;7.30;99.90
3051;DHT22;1535;51.098;6.414;2024-01-06T02:54:27;7.30;99.90
3051;DHT22;1535;51.098;6.414;2024-01-06T02:56:55;7.30;99.90
3051;DHT22;1535;51.098;6.414;2024-01-06T02:59:22;7.30;99.90
3051;DHT22;1535;51.098;6.414;2024-01-06T03:01:49;7.30;99.90
3051;DHT22;1535;51.098;6.414;2024-01-06T03:04:16;7.20;99.90
3051;DHT22;1535;51.098;6.414;2024-01-06T03:06:42;7.20;99.90
3051;DHT22;1535;51.098;6.414;2024-01-06T03:09:09;7.30;99.90
3051;DHT22;1535;51.098;6.414;2024-01-06T03:11:36;7.20;99.90
3051;DHT22;1535;51.098;6.414;2024-01-06T03:14:05;7.20;99.90
3051;DHT22;1535;51.098;6.414;2024-01-06T03:16:33;7.10;99.90
3051;DHT22;1535;51.098;6.414;2024-01-06T03:19:00;7.00;99.90
3051;DHT22;1535;51.098;6.414;2024-01-06T03:21:27;6.90;99.90
3051;DHT22;1535;51.098;6.414;2024-01-06T03:23:53;6.90;99.90
3051;DHT22;1535;51.098;6.414;2024-01-06T03:26:21;6.90;99.90
3051;DHT22;1535;51.098;6.414;2024-01-06T03:28:49;6.90;99.90
3051;DHT22;1535;51.098;6.414;2024-01-06T03:31:18;6.80;99.90
3051;DHT22;1535;51.098;6.414;2024-01-06T03:33:47;6.80;99.90
3051;DHT22;1535;51.098;6.414;2024-01-06T03:36:14;6.90;99.90
3051;DHT22;1535;51.098;6.414;2024-01-06T03:38:42;6.90;99.90
3051;DHT22;1535;51.098;6.414;2024-01-06T03:41:09;6.80;99.90
3051;DHT22;1535;51.098;6.414;2024-01-06T03:43:35;6.80;99.90
3051;DHT22;1535;51.098;6.414;2024-01-06T03:46:03;6.80;99.90
3051;DHT22;1535;51.098;6.414;2024-01-06T03:48:33;6.70;99.90
3051;DHT22;1535;51.098;6.414;2024-01-06T03:51:02;6.80;99.90
3051;DHT22;1535;51.098;6.414;2024-01-06T03:53:30;6.70;99.90
3051;DHT22;1535;51.098;6.414;2024-01-06T03:55:57;6.80;99.90
3051;DHT22;1535;51.098;6.414;2024-01-06T03:58:24;6.80;99.90
3051;DHT22;1535;51.098;6.414;2024-01-06T04:00:51;6.80;99.90
3051;DHT22;1535;51.098;6.414;2024-01-06T04:03:17;6.80;99.90
3051;DHT22;1535;51.098;6.414;2024-01-06T04:05:45;6.70;99.90
3051;DHT22;1535;51.098;6.414;2024-01-06T04:08:12;6.70;99.90
3051;DHT22;1535;51.098;6.414;2024-01-06T04:10:39;6.70;99.90
3051;DHT22;1535;51.098;6.414;2024-01-06T04:13:07;6.70;99.90
3051;DHT22;1535;51.098;6.414;2024-01-06T04:15:34;6.70;99.90
3051;DHT22;1535;51.098;6.414;2024-01-06T04:18:02;6.40;99.90
3051;DHT22;1535;51.098;6.414;2024-01-06T04:20:29;6.30;99.90
3051;DHT22;1535;51.098;6.414;2024-01-06T04:22:58;6.10;99.90
3051;DHT22;1535;51.098;6.414;2024-01-06T04:25:25;6.00;99.90
3051;DHT22;1535;51.098;6.414;2024-01-06T04:27:51;5.90;99.90
3051;DHT22;1535;51.098;6.414;2024-01-06T04:30:19;5.80;99.90
3051;DHT22;1535;51.098;6.414;2024-01-06T04:32:46;5.80;99.90
3051;DHT22;1535;51.098;6.414;2024-01-06T04:35:14;5.80;99.90
3051;DHT22;1535;51.098;6.414;2024-01-06T04:37:40;5.80;99.90
3051;DHT22;1535;51.098;6.414;2024-01-06T04:40:10;5.80;99.90
3051;DHT22;1535;51.098;6.414;2024-01-06T04:42:37;5.70;99.90
3051;DHT22;1535;51.098;6.414;2024-01-06T04:45:05;5.70;99.90
3051;DHT22;1535;51.098;6.414;2024-01-06T04:47:32;5.70;99.90
3051;DHT22;1535;51.098;6.414;2024-01-06T04:49:59;5.70;99.90
3051;DHT22;1535;51.098;6.414;2024-01-06T04:52:26;5.70;99.90
3051;DHT22;1535;51.098;6.414;2024-01-06T04:54:53;5.80;99.90
3051;DHT22;1535;51.098;6.414;2024-01-06T04:57:21;5.70;99.90
3051;DHT22;1535;51.098;6.414;2024-01-06T04:59:47;5.60;99.90
3051;DHT22;1535;51.098;6.414;2024-01-06T05:05:36;5.50;99.90
3051;DHT22;1535;51.098;6.414;2024-01-06T05:08:03;5.50;99.90
3051;DHT22;1535;51.098;6.414;2024-01-06T05:10:30;5.40;99.90
3051;DHT22;1535;51.098;6.414;2024-01-06T05:12:58;5.40;99.90
3051;DHT22;1535;51.098;6.414;2024-01-06T05:15:26;5.30;99.90
3051;DHT22;1535;51.098;6.414;2024-01-06T05:17:53;5.30;99.90
3051;DHT22;1535;51.098;6.414;2024-01-06T05:20:20;5.30;99.90
3051;DHT22;1535;51.098;6.414;2024-01-06T05:22:46;5.30;99.90
3051;DHT22;1535;51.098;6.414;2024-01-06T05:25:14;5.20;99.90
3051;DHT22;1535;51.098;6.414;2024-01-06T05:27:40;5.20;99.90
3051;DHT22;1535;51.098;6.414;2024-01-06T05:30:09;5.20;99.90
3051;DHT22;1535;51.098;6.414;2024-01-06T05:35:58;5.20;99.90
3051;DHT22;1535;51.098;6.414;2024-01-06T05:38:25;5.30;99.90
3051;DHT22;1535;51.098;6.414;2024-01-06T05:40:52;5.30;99.90
3051;DHT22;1535;51.098;6.414;2024-01-06T05:43:19;5.20;99.90
3051;DHT22;1535;51.098;6.414;2024-01-06T05:45:47;5.20;99.90
3051;DHT22;1535;51.098;6.414;2024-01-06T05:48:14;5.20;99.90
3051;DHT22;1535;51.098;6.414;2024-01-06T05:50:41;5.20;99.90
3051;DHT22;1535;51.098;6.414;2024-01-06T05:53:08;5.20;99.90
3051;DHT22;1535;51.098;6.414;2024-01-06T05:55:36;5.20;99.90
3051;DHT22;1535;51.098;6.414;2024-01-06T05:58:03;5.20;99.90
3051;DHT22;1535;51.098;6.414;2024-01-06T06:00:30;5.20;99.90
3051;DHT22;1535;51.098;6.414;2024-01-06T06:02:59;5.10;99.90
3051;DHT22;1535;51.098;6.414;2024-01-06T06:05:25;5.20;99.90
3051;DHT22;1535;51.098;6.414;2024-01-06T06:07:52;5.10;99.90
3051;DHT22;1535;51.098;6.414;2024-01-06T06:10:20;5.10;99.90
3051;DHT22;1535;51.098;6.414;2024-01-06T06:12:47;5.10;99.90
3051;DHT22;1535;51.098;6.414;2024-01-06T06:15:14;5.10;99.90
3051;DHT22;1535;51.098;6.414;2024-01-06T06:17:41;5.10;99.90
3051;DHT22;1535;51.098;6.414;2024-01-06T06:20:10;5.10;99.90
3051;DHT22;1535;51.098;6.414;2024-01-06T06:22:38;5.00;99.90
3051;DHT22;1535;51.098;6.414;2024-01-06T06:25:06;5.00;99.90
3051;DHT22;1535;51.098;6.414;2024-01-06T06:27:33;5.00;99.90
3051;DHT22;1535;51.098;6.414;2024-01-06T06:30:00;4.90;99.90
3051;DHT22;1535;51.098;6.414;2024-01-06T06:32:27;4.90;99.90
3051;DHT22;1535;51.098;6.414;2024-01-06T06:34:54;4.90;99.90
3051;DHT22;1535;51.098;6.414;2024-01-06T06:37:22;4.90;99.90
3051;DHT22;1535;51.098;6.414;2024-01-06T06:39:49;5.00;99.90
3051;DHT22;1535;51.098;6.414;2024-01-06T06:42:16;4.90;99.90
3051;DHT22;1535;51.098;6.414;2024-01-06T06:44:42;4.90;99.90
3051;DHT22;1535;51.098;6.414;2024-01-06T06:47:09;4.80;99.90
3051;DHT22;1535;51.098;6.414;2024-01-06T06:49:36;4.80;99.90
3051;DHT22;1535;51.098;6.414;2024-01-06T06:52:03;4.80;99.90
3051;DHT22;1535;51.098;6.414;2024-01-06T06:54:34;4.80;99.90
3051;DHT22;1535;51.098;6.414;2024-01-06T06:57:02;4.70;99.90
3051;DHT22;1535;51.098;6.414;2024-01-06T06:59:29;4.70;99.90
3051;DHT22;1535;51.098;6.414;2024-01-06T07:01:56;4.80;99.90
3051;DHT22;1535;51.098;6.414;2024-01-06T07:04:23;4.70;99.90
3051;DHT22;1535;51.098;6.414;2024-01-06T07:06:51;4.60;99.90
3051;DHT22;1535;51.098;6.414;2024-01-06T07:09:18;4.70;99.90
3051;DHT22;1535;51.098;6.414;2024-01-06T07:11:49;4.70;99.90
3051;DHT22;1535;51.098;6.414;2024-01-06T07:14:16;4.60;99.90
3051;DHT22;1535;51.098;6.414;2024-01-06T07:16:43;4.60;99.90
3051;DHT22;1535;51.098;6.414;2024-01-06T07:19:10;4.60;99.90
3051;DHT22;1535;51.098;6.414;2024-01-06T07:21:37;4.70;99.90
3051;DHT22;1535;51.098;6.414;2024-01-06T07:24:04;4.70;99.90
3051;DHT22;1535;51.098;6.414;2024-01-06T07:26:31;4.70;99.90
3051;DHT22;1535;51.098;6.414;2024-01-06T07:28:59;4.60;99.90
3051;DHT22;1535;51.098;6.414;2024-01-06T07:31:26;4.60;99.90
3051;DHT22;1535;51.098;6.414;2024-01-06T07:33:53;4.50;99.90
3051;DHT22;1535;51.098;6.414;2024-01-06T07:36:21;4.60;99.90
3051;DHT22;1535;51.098;6.414;2024-01-06T07:38:48;4.50;99.90
3051;DHT22;1535;51.098;6.414;2024-01-06T07:41:15;4.50;99.90
3051;DHT22;1535;51.098;6.414;2024-01-06T07:43:42;4.50;99.90
3051;DHT22;1535;51.098;6.414;2024-01-06T07:46:11;4.50;99.90
3051;DHT22;1535;51.098;6.414;2024-01-06T07:48:37;4.50;99.90
3051;DHT22;1535;51.098;6.414;2024-01-06T07:51:04;4.50;99.90
3051;DHT22;1535;51.098;6.414;2024-01-06T07:53:31;4.40;99.90
3051;DHT22;1535;51.098;6.414;2024-01-06T07:55:59;4.50;99.90
3051;DHT22;1535;51.098;6.414;2024-01-06T07:58:27;4.50;99.90
3051;DHT22;1535;51.098;6.414;2024-01-06T08:00:54;4.50;99.90
3051;DHT22;1535;51.098;6.414;2024-01-06T08:03:23;4.60;99.90
3051;DHT22;1535;51.098;6.414;2024-01-06T08:05:50;4.60;99.90
3051;DHT22;1535;51.098;6.414;2024-01-06T08:08:17;4.70;99.90
3051;DHT22;1535;51.098;6.414;2024-01-06T08:10:46;4.70;99.90
3051;DHT22;1535;51.098;6.414;2024-01-06T08:13:14;4.70;99.90
3051;DHT22;1535;51.098;6.414;2024-01-06T08:15:41;4.80;99.90
3051;DHT22;1535;51.098;6.414;2024-01-06T08:18:08;4.90;99.90
3051;DHT22;1535;51.098;6.414;2024-01-06T08:20:36;4.90;99.90
3051;DHT22;1535;51.098;6.414;2024-01-06T08:23:03;5.00;99.90
3051;DHT22;1535;51.098;6.414;2024-01-06T08:25:30;5.00;99.90
3051;DHT22;1535;51.098;6.414;2024-01-06T08:27:59;5.10;99.90
3051;DHT22;1535;51.098;6.414;2024-01-06T08:30:25;5.10;99.90
3051;DHT22;1535;51.098;6.414;2024-01-06T08:32:53;5.10;99.90
3051;DHT22;1535;51.098;6.414;2024-01-06T08:35:20;5.10;99.90
3051;DHT22;1535;51.098;6.414;2024-01-06T08:37:48;5.20;99.90
3051;DHT22;1535;51.098;6.414;2024-01-06T08:40:15;5.20;99.90
3051;DHT22;1535;51.098;6.414;2024-01-06T08:42:43;5.20;99.90
3051;DHT22;1535;51.098;6.414;2024-01-06T08:45:09;5.20;99.90
3051;DHT22;1535;51.098;6.414;2024-01-06T08:47:37;5.20;99.90
3051;DHT22;1535;51.098;6.414;2024-01-06T08:50:04;5.30;99.90
3051;DHT22;1535;51.098;6.414;2024-01-06T08:52:31;5.20;99.90
3051;DHT22;1535;51.098;6.414;2024-01-06T08:54:59;5.30;99.90
3051;DHT22;1535;51.098;6.414;2024-01-06T08:57:27;5.30;99.90
3051;DHT22;1535;51.098;6.414;2024-01-06T08:59:54;5.40;99.90
3051;DHT22;1535;51.098;6.414;2024-01-06T09:02:21;5.50;99.90
3051;DHT22;1535;51.098;6.414;2024-01-06T09:04:48;5.50;99.90
3051;DHT22;1535;51.098;6.414;2024-01-06T09:07:15;5.60;99.90
3051;DHT22;1535;51.098;6.414;2024-01-06T09:09:42;5.60;99.90
3051;DHT22;1535;51.098;6.414;2024-01-06T09:12:10;5.50;99.90
3051;DHT22;1535;51.098;6.414;2024-01-06T09:14:38;5.50;99.90
3051;DHT22;1535;51.098;6.414;2024-01-06T09:17:06;5.40;99.90
3051;DHT22;1535;51.098;6.414;2024-01-06T09:19:33;5.40;99.90
3051;DHT22;1535;51.098;6.414;2024-01-06T09:22:01;5.40;99.90
3051;DHT22;1535;51.098;6.414;2024-01-06T09:24:28;5.40;99.90
3051;DHT22;1535;51.098;6.414;2024-01-06T09:26:55;5.30;99.90
3051;DHT22;1535;51.098;6.414;2024-01-06T09:29:23;5.30;99.90
3051;DHT22;1535;51.098;6.414;2024-01-06T09:31:50;5.30;99.90
3051;DHT22;1535;51.098;6.414;2024-01-06T09:34:17;5.30;99.90
3051;DHT22;1535;51.098;6.414;2024-01-06T09:36:44;5.30;99.90
3051;DHT22;1535;51.098;6.414;2024-01-06T09:39:11;5.40;99.90
3051;DHT22;1535;51.098;6.414;2024-01-06T09:41:38;5.40;99.90
3051;DHT22;1535;51.098;6.414;2024-01-06T09:44:05;5.30;99.90
3051;DHT22;1535;51.098;6.414;2024-01-06T09:46:34;5.30;99.90
3051;DHT22;1535;51.098;6.414;2024-01-06T09:49:02;5.40;99.90
3051;DHT22;1535;51.098;6.414;2024-01-06T09:51:30;5.40;99.90
3051;DHT22;1535;51.098;6.414;2024-01-06T09:53:58;5.50;99.90
3051;DHT22;1535;51.098;6.414;2024-01-06T09:56:26;5.50;99.90
3051;DHT22;1535;51.098;6.414;2024-01-06T09:58:54;5.50;99.90
3051;DHT22;1535;51.098;6.414;2024-01-06T10:01:21;5.50;99.90
3051;DHT22;1535;51.098;6.414;2024-01-06T10:03:50;5.50;99.90
3051;DHT22;1535;51.098;6.414;2024-01-06T10:06:18;5.50;99.90
3051;DHT22;1535;51.098;6.414;2024-01-06T10:08:49;5.50;99.90
3051;DHT22;1535;51.098;6.414;2024-01-06T10:11:16;5.50;99.90
3051;DHT22;1535;51.098;6.414;2024-01-06T10:13:43;5.50;99.90
3051;DHT22;1535;51.098;6.414;2024-01-06T10:16:10;5.50;99.90
3051;DHT22;1535;51.098;6.414;2024-01-06T10:18:37;5.50;99.90
3051;DHT22;1535;51.098;6.414;2024-01-06T10:21:05;5.40;99.90
3051;DHT22;1535;51.098;6.414;2024-01-06T10:23:33;5.40;99.90
3051;DHT22;1535;51.098;6.414;2024-01-06T10:26:00;5.60;99.90
3051;DHT22;1535;51.098;6.414;2024-01-06T10:28:27;5.40;99.90
3051;DHT22;1535;51.098;6.414;2024-01-06T10:30:55;5.40;99.90
3051;DHT22;1535;51.098;6.414;2024-01-06T10:33:23;5.30;99.90
3051;DHT22;1535;51.098;6.414;2024-01-06T10:35:50;5.40;99.90
3051;DHT22;1535;51.098;6.414;2024-01-06T10:38:18;5.50;99.90
3051;DHT22;1535;51.098;6.414;2024-01-06T10:40:57;5.40;99.90
3051;DHT22;1535;51.098;6.414;2024-01-06T10:43:26;5.40;99.90
3051;DHT22;1535;51.098;6.414;2024-01-06T10:45:55;5.50;99.90
3051;DHT22;1535;51.098;6.414;2024-01-06T10:48:25;5.40;99.90
3051;DHT22;1535;51.098;6.414;2024-01-06T10:50:52;5.30;99.90
3051;DHT22;1535;51.098;6.414;2024-01-06T10:53:22;5.20;99.90
3051;DHT22;1535;51.098;6.414;2024-01-06T10:55:50;5.00;99.90
3051;DHT22;1535;51.098;6.414;2024-01-06T10:58:17;5.00;99.90
3051;DHT22;1535;51.098;6.414;2024-01-06T11:00:45;5.00;99.90
3051;DHT22;1535;51.098;6.414;2024-01-06T11:03:13;5.00;99.90
3051;DHT22;1535;51.098;6.414;2024-01-06T11:05:41;5.00;99.90
3051;DHT22;1535;51.098;6.414;2024-01-06T11:08:09;4.80;99.90
3051;DHT22;1535;51.098;6.414;2024-01-06T11:10:39;4.70;99.90
3051;DHT22;1535;51.098;6.414;2024-01-06T11:13:09;4.70;99.90
3051;DHT22;1535;51.098;6.414;2024-01-06T11:15:44;4.70;99.90
3051;DHT22;1535;51.098;6.414;2024-01-06T11:18:32;4.70;99.90
3051;DHT22;1535;51.098;6.414;2024-01-06T11:21:15;4.70;99.90
3051;DHT22;1535;51.098;6.414;2024-01-06T11:23:45;4.80;99.90
3051;DHT22;1535;51.098;6.414;2024-01-06T11:26:13;4.70;99.90
3051;DHT22;1535;51.098;6.414;2024-01-06T11:28:45;4.70;99.90
3051;DHT22;1535;51.098;6.414;2024-01-06T11:31:12;4.70;99.90
3051;DHT22;1535;51.098;6.414;2024-01-06T11:33:42;4.70;99.90
3051;DHT22;1535;51.098;6.414;2024-01-06T11:36:09;4.70;99.90
3051;DHT22;1535;51.098;6.414;2024-01-06T11:38:39;4.70;99.90
3051;DHT22;1535;51.098;6.414;2024-01-06T11:41:07;4.60;99.90
3051;DHT22;1535;51.098;6.414;2024-01-06T11:43:38;4.60;99.90
3051;DHT22;1535;51.098;6.414;2024-01-06T11:46:06;4.50;99.90
3051;DHT22;1535;51.098;6.414;2024-01-06T11:48:35;4.40;99.90
3051;DHT22;1535;51.098;6.414;2024-01-06T11:51:04;4.40;99.90
3051;DHT22;1535;51.098;6.414;2024-01-06T11:53:31;4.40;99.90
3051;DHT22;1535;51.098;6.414;2024-01-06T11:55:59;4.40;99.90
3051;DHT22;1535;51.098;6.414;2024-01-06T11:58:27;4.30;99.90
3051;DHT22;1535;51.098;6.414;2024-01-06T12:00:59;4.30;99.90
3051;DHT22;1535;51.098;6.414;2024-01-06T12:03:26;4.40;99.90
3051;DHT22;1535;51.098;6.414;2024-01-06T12:06:00;4.40;99.90
3051;DHT22;1535;51.098;6.414;2024-01-06T12:08:28;4.40;99.90
3051;DHT22;1535;51.098;6.414;2024-01-06T12:11:02;4.40;99.90
3051;DHT22;1535;51.098;6.414;2024-01-06T12:13:29;4.20;99.90
3051;DHT22;1535;51.098;6.414;2024-01-06T12:15:57;4.20;99.90
3051;DHT22;1535;51.098;6.414;2024-01-06T12:18:25;4.30;99.90
3051;DHT22;1535;51.098;6.414;2024-01-06T12:20:52;4.20;99.90
3051;DHT22;1535;51.098;6.414;2024-01-06T12:23:26;4.10;99.90
3051;DHT22;1535;51.098;6.414;2024-01-06T12:25:53;4.10;99.90
3051;DHT22;1535;51.098;6.414;2024-01-06T12:28:20;4.10;99.90
3051;DHT22;1535;51.098;6.414;2024-01-06T12:30:47;4.10;99.90
3051;DHT22;1535;51.098;6.414;2024-01-06T12:33:16;4.10;99.90
3051;DHT22;1535;51.098;6.414;2024-01-06T12:35:44;4.00;99.90
3051;DHT22;1535;51.098;6.414;2024-01-06T12:38:12;3.90;99.90
3051;DHT22;1535;51.098;6.414;2024-01-06T12:40:39;3.90;99.90
3051;DHT22;1535;51.098;6.414;2024-01-06T12:43:06;4.00;99.90
3051;DHT22;1535;51.098;6.414;2024-01-06T12:45:33;3.90;99.90
3051;DHT22;1535;51.098;6.414;2024-01-06T12:48:00;3.90;99.90
3051;DHT22;1535;51.098;6.414;2024-01-06T12:50:28;3.90;99.90
3051;DHT22;1535;51.098;6.414;2024-01-06T12:52:55;3.80;99.90
3051;DHT22;1535;51.098;6.414;2024-01-06T12:55:22;3.90;99.90
3051;DHT22;1535;51.098;6.414;2024-01-06T12:57:49;3.90;99.90
3051;DHT22;1535;51.098;6.414;2024-01-06T13:00:17;3.90;99.90
3051;DHT22;1535;51.098;6.414;2024-01-06T13:02:44;3.90;99.90
3051;DHT22;1535;51.098;6.414;2024-01-06T13:05:11;3.80;99.90
3051;DHT22;1535;51.098;6.414;2024-01-06T13:07:40;3.70;99.90
3051;DHT22;1535;51.098;6.414;2024-01-06T13:10:08;3.60;99.90
3051;DHT22;1535;51.098;6.414;2024-01-06T13:12:35;3.60;99.90
3051;DHT22;1535;51.098;6.414;2024-01-06T13:15:04;3.60;99.90
3051;DHT22;1535;51.098;6.414;2024-01-06T13:17:31;3.60;99.90
3051;DHT22;1535;51.098;6.414;2024-01-06T13:19:58;3.60;99.90
3051;DHT22;1535;51.098;6.414;2024-01-06T13:22:25;3.60;99.90
3051;DHT22;1535;51.098;6.414;2024-01-06T13:24:53;3.50;99.90
3051;DHT22;1535;51.098;6.414;2024-01-06T13:27:20;3.40;99.90
3051;DHT22;1535;51.098;6.414;2024-01-06T13:29:48;3.50;99.90
3051;DHT22;1535;51.098;6.414;2024-01-06T13:32:15;3.40;99.90
3051;DHT22;1535;51.098;6.414;2024-01-06T13:34:45;3.40;99.90
3051;DHT22;1535;51.098;6.414;2024-01-06T13:37:12;3.50;99.90
3051;DHT22;1535;51.098;6.414;2024-01-06T13:39:38;3.50;99.90
3051;DHT22;1535;51.098;6.414;2024-01-06T13:42:07;3.40;99.90
3051;DHT22;1535;51.098;6.414;2024-01-06T13:44:34;3.40;99.90
3051;DHT22;1535;51.098;6.414;2024-01-06T13:47:00;3.40;99.90
3051;DHT22;1535;51.098;6.414;2024-01-06T13:49:29;3.50;99.90
3051;DHT22;1535;51.098;6.414;2024-01-06T13:51:56;3.50;99.90
3051;DHT22;1535;51.098;6.414;2024-01-06T13:54:23;3.40;99.90
3051;DHT22;1535;51.098;6.414;2024-01-06T13:56:50;3.20;99.90
3051;DHT22;1535;51.098;6.414;2024-01-06T13:59:19;3.20;99.90
3051;DHT22;1535;51.098;6.414;2024-01-06T14:01:45;3.30;99.90
3051;DHT22;1535;51.098;6.414;2024-01-06T14:04:13;3.20;99.90
3051;DHT22;1535;51.098;6.414;2024-01-06T14:06:40;3.30;99.90
3051;DHT22;1535;51.098;6.414;2024-01-06T14:09:07;3.20;99.90
3051;DHT22;1535;51.098;6.414;2024-01-06T14:11:35;3.20;99.90
3051;DHT22;1535;51.098;6.414;2024-01-06T14:14:02;3.20;99.90
3051;DHT22;1535;51.098;6.414;2024-01-06T14:16:31;3.10;99.90
3051;DHT22;1535;51.098;6.414;2024-01-06T14:18:58;3.10;99.90
3051;DHT22;1535;51.098;6.414;2024-01-06T14:21:25;3.20;99.90
3051;DHT22;1535;51.098;6.414;2024-01-06T14:23:53;3.20;99.90
3051;DHT22;1535;51.098;6.414;2024-01-06T14:26:20;3.20;99.90
3051;DHT22;1535;51.098;6.414;2024-01-06T14:28:47;3.10;99.90
3051;DHT22;1535;51.098;6.414;2024-01-06T14:31:14;3.20;99.90
3051;DHT22;1535;51.098;6.414;2024-01-06T14:33:42;3.20;99.90
3051;DHT22;1535;51.098;6.414;2024-01-06T14:36:09;3.20;99.90
3051;DHT22;1535;51.098;6.414;2024-01-06T14:38:37;3.20;99.90
3051;DHT22;1535;51.098;6.414;2024-01-06T14:41:04;3.10;99.90
3051;DHT22;1535;51.098;6.414;2024-01-06T14:43:31;3.10;99.90
3051;DHT22;1535;51.098;6.414;2024-01-06T14:45:58;3.10;99.90
3051;DHT22;1535;51.098;6.414;2024-01-06T14:48:25;3.00;99.90
3051;DHT22;1535;51.098;6.414;2024-01-06T14:50:54;2.90;99.90
3051;DHT22;1535;51.098;6.414;2024-01-06T14:53:20;2.90;99.90
3051;DHT22;1535;51.098;6.414;2024-01-06T14:55:47;2.90;99.90
3051;DHT22;1535;51.098;6.414;2024-01-06T14:58:15;2.90;99.90
3051;DHT22;1535;51.098;6.414;2024-01-06T15:00:42;2.80;99.90
3051;DHT22;1535;51.098;6.414;2024-01-06T15:03:09;2.90;99.90
3051;DHT22;1535;51.098;6.414;2024-01-06T15:05:36;2.90;99.90
3051;DHT22;1535;51.098;6.414;2024-01-06T15:08:06;3.00;99.90
3051;DHT22;1535;51.098;6.414;2024-01-06T15:10:32;3.00;99.90
3051;DHT22;1535;51.098;6.414;2024-01-06T15:12:59;3.00;99.90
3051;DHT22;1535;51.098;6.414;2024-01-06T15:15:26;3.00;99.90
3051;DHT22;1535;51.098;6.414;2024-01-06T15:17:53;3.00;99.90
3051;DHT22;1535;51.098;6.414;2024-01-06T15:20:20;2.90;99.90
3051;DHT22;1535;51.098;6.414;2024-01-06T15:22:48;2.90;99.90
3051;DHT22;1535;51.098;6.414;2024-01-06T15:25:21;3.00;99.90
3051;DHT22;1535;51.098;6.414;2024-01-06T15:27:57;2.90;99.90
3051;DHT22;1535;51.098;6.414;2024-01-06T15:30:25;3.00;99.90
3051;DHT22;1535;51.098;6.414;2024-01-06T15:32:54;3.00;99.90
3051;DHT22;1535;51.098;6.414;2024-01-06T15:35:22;2.90;99.90
3051;DHT22;1535;51.098;6.414;2024-01-06T15:37:49;2.90;99.90
3051;DHT22;1535;51.098;6.414;2024-01-06T15:40:16;2.90;99.90
3051;DHT22;1535;51.098;6.414;2024-01-06T15:42:45;2.90;99.90
3051;DHT22;1535;51.098;6.414;2024-01-06T15:45:12;2.90;99.90
3051;DHT22;1535;51.098;6.414;2024-01-06T15:47:40;2.80;99.90
3051;DHT22;1535;51.098;6.414;2024-01-06T15:50:07;2.80;99.90
3051;DHT22;1535;51.098;6.414;2024-01-06T15:52:34;2.70;99.90
3051;DHT22;1535;51.098;6.414;2024-01-06T15:55:01;2.70;99.90
3051;DHT22;1535;51.098;6.414;2024-01-06T15:57:28;2.70;99.90
3051;DHT22;1535;51.098;6.414;2024-01-06T15:59:57;2.70;99.90
3051;DHT22;1535;51.098;6.414;2024-01-06T16:02:24;2.80;99.90
3051;DHT22;1535;51.098;6.414;2024-01-06T16:04:51;2.80;99.90
3051;DHT22;1535;51.098;6.414;2024-01-06T16:07:18;2.80;99.90
3051;DHT22;1535;51.098;6.414;2024-01-06T16:09:45;2.80;99.90
3051;DHT22;1535;51.098;6.414;2024-01-06T16:12:13;2.80;99.90
3051;DHT22;1535;51.098;6.414;2024-01-06T16:14:41;2.80;99.90
3051;DHT22;1535;51.098;6.414;2024-01-06T16:17:09;2.90;99.90
3051;DHT22;1535;51.098;6.414;2024-01-06T16:19:36;2.90;99.90
3051;DHT22;1535;51.098;6.414;2024-01-06T16:22:03;2.90;99.90
3051;DHT22;1535;51.098;6.414;2024-01-06T16:24:30;2.80;99.90